Time;durP1;ratioP1;P1;durP2;ratioP2;P2;SDS_P1;SDS_P2;PMS_P1;PMS_P2;Temp;Humidity;BMP_temperature;BMP_pressure;BME280_temperature;BME280_humidity;BME280_pressure;Samples;Min_cycle;Max_cycle;Signal;HPM_P1;HPM_P2
2023/03/30 00:00:57;;;;;;;10.45;8.05;;;12.00;99.90;;;;;;5002480;28;20428;-70
2023/03/30 00:03:23;;;;;;;10.52;8.57;;;11.90;99.90;;;;;;4998948;28;20436;-69
2023/03/30 00:05:50;;;;;;;10.02;8.07;;;12.00;99.90;;;;;;5000631;28;20435;-69
2023/03/30 00:08:17;;;;;;;11.23;7.60;;;12.00;99.90;;;;;;4990932;28;20830;-69
2023/03/30 00:10:43;;;;;;;11.13;7.78;;;12.10;99.90;;;;;;5000806;28;20952;-68
2023/03/30 00:13:10;;;;;;;11.48;7.38;;;12.10;99.90;;;;;;4992230;28;20505;-70
2023/03/30 00:15:36;;;;;;;13.45;7.20;;;12.10;99.90;;;;;;4991108;28;20438;-69
2023/03/30 00:18:02;;;;;;;10.13;6.75;;;12.10;99.90;;;;;;4998499;28;20472;-68
2023/03/30 00:20:31;;;;;;;9.93;6.20;;;12.20;99.90;;;;;;4989930;28;20432;-69
2023/03/30 00:22:57;;;;;;;10.07;6.35;;;12.20;99.90;;;;;;5003714;28;20431;-70
2023/03/30 00:25:23;;;;;;;12.82;6.50;;;12.30;99.90;;;;;;4989877;28;20436;-68
2023/03/30 00:27:49;;;;;;;8.80;6.18;;;12.30;99.90;;;;;;4993866;28;20420;-69
2023/03/30 00:30:16;;;;;;;11.15;6.00;;;12.30;99.90;;;;;;4992791;28;20496;-68
2023/03/30 00:32:44;;;;;;;10.43;6.40;;;12.30;99.90;;;;;;4999159;28;20428;-69
2023/03/30 00:35:11;;;;;;;11.68;6.80;;;12.30;99.90;;;;;;4988104;28;20426;-70
2023/03/30 00:37:37;;;;;;;12.75;6.20;;;12.30;99.90;;;;;;4997898;28;20941;-69
2023/03/30 00:40:06;;;;;;;10.25;6.50;;;12.30;99.90;;;;;;5022075;28;20448;-69
2023/03/30 00:42:36;;;;;;;10.55;7.57;;;12.30;99.90;;;;;;4995318;28;20435;-68
2023/03/30 00:45:13;;;;;;;9.38;6.63;;;12.20;99.90;;;;;;4997432;28;20500;-67
2023/03/30 00:47:51;;;;;;;9.40;5.93;;;12.30;99.90;;;;;;5004995;28;20872;-69
2023/03/30 00:50:20;;;;;;;10.97;6.93;;;12.20;99.90;;;;;;4997569;28;20426;-69
2023/03/30 00:52:51;;;;;;;9.88;6.72;;;12.20;99.90;;;;;;4984912;28;20436;-69
2023/03/30 00:55:19;;;;;;;9.03;6.00;;;12.20;99.90;;;;;;4996651;28;20889;-70
2023/03/30 00:57:46;;;;;;;10.63;7.05;;;12.30;99.90;;;;;;5002581;28;20926;-68
2023/03/30 01:00:13;;;;;;;10.93;5.68;;;12.30;99.90;;;;;;5002227;28;20444;-68
2023/03/30 01:02:54;;;;;;;12.73;6.35;;;12.30;99.90;;;;;;4990435;28;20487;-69
2023/03/30 01:05:22;;;;;;;14.45;6.53;;;12.30;99.90;;;;;;5059645;23;21062;-81
2023/03/30 01:07:49;;;;;;;9.07;5.60;;;12.30;99.90;;;;;;4990315;28;20440;-77
2023/03/30 01:10:15;;;;;;;9.57;5.60;;;12.20;99.90;;;;;;4992532;28;20569;-77
2023/03/30 01:12:41;;;;;;;9.37;6.10;;;12.30;99.90;;;;;;4989494;28;20422;-78
2023/03/30 01:15:08;;;;;;;10.67;5.20;;;12.20;99.90;;;;;;4992856;28;20740;-80
2023/03/30 01:18:07;;;;;;;8.43;6.03;;;12.30;99.90;;;;;;4994103;28;20437;-77
2023/03/30 01:21:01;;;;;;;10.77;6.80;;;12.20;99.90;;;;;;4981538;28;20441;-78
2023/03/30 01:23:57;;;;;;;14.20;7.17;;;12.30;99.90;;;;;;4994191;28;20449;-77
2023/03/30 01:26:43;;;;;;;11.25;5.82;;;12.20;99.90;;;;;;4991731;28;20512;-77
2023/03/30 01:29:21;;;;;;;8.80;5.90;;;12.20;99.90;;;;;;4982719;28;20509;-77
2023/03/30 01:32:00;;;;;;;12.60;6.75;;;12.20;99.90;;;;;;4974164;28;20426;-77
2023/03/30 01:35:00;;;;;;;10.45;6.32;;;12.20;99.90;;;;;;4991019;28;20420;-77
2023/03/30 01:37:41;;;;;;;8.73;5.25;;;12.10;99.90;;;;;;4990070;28;20434;-77
2023/03/30 01:40:20;;;;;;;13.00;6.63;;;12.20;99.90;;;;;;4992191;28;20466;-76
2023/03/30 01:43:00;;;;;;;7.82;5.07;;;12.20;99.90;;;;;;4990979;28;20430;-77
2023/03/30 01:45:41;;;;;;;10.03;4.80;;;12.10;99.90;;;;;;4993657;28;20512;-77
2023/03/30 01:48:12;;;;;;;7.70;4.77;;;12.10;99.90;;;;;;4993650;28;20520;-78
2023/03/30 01:50:42;;;;;;;8.07;4.87;;;12.10;99.90;;;;;;4990592;28;20517;-78
2023/03/30 01:53:20;;;;;;;9.45;5.05;;;12.00;99.90;;;;;;4988774;28;20932;-77
2023/03/30 01:56:19;;;;;;;9.15;5.45;;;11.90;99.90;;;;;;4993656;28;20812;-77
2023/03/30 01:58:51;;;;;;;7.70;4.67;;;12.00;99.90;;;;;;4974936;28;20434;-77
2023/03/30 02:01:19;;;;;;;10.05;3.80;;;12.00;99.90;;;;;;4987362;28;20442;-78
2023/03/30 02:03:51;;;;;;;10.25;5.07;;;12.10;99.90;;;;;;4992106;28;20481;-76
2023/03/30 02:06:37;;;;;;;10.80;4.38;;;12.10;99.90;;;;;;4992891;28;20448;-77
2023/03/30 02:09:04;;;;;;;7.30;4.10;;;12.10;99.90;;;;;;4992769;28;20442;-78
2023/03/30 02:11:31;;;;;;;8.80;3.60;;;12.10;99.90;;;;;;4993562;28;20427;-77
2023/03/30 02:13:58;;;;;;;7.43;4.20;;;12.10;99.90;;;;;;5008881;28;20483;-77
2023/03/30 02:16:32;;;;;;;9.35;4.82;;;12.00;99.90;;;;;;4998683;28;20460;-76
2023/03/30 02:18:58;;;;;;;9.23;3.25;;;11.90;99.90;;;;;;4987483;28;20445;-77
2023/03/30 02:21:24;;;;;;;10.23;4.78;;;11.80;99.90;;;;;;4990108;28;20456;-78
2023/03/30 02:23:54;;;;;;;6.97;3.28;;;11.80;99.90;;;;;;4990610;28;20449;-76
2023/03/30 02:26:21;;;;;;;9.43;4.03;;;11.90;99.90;;;;;;4989212;28;20449;-76
2023/03/30 02:28:49;;;;;;;8.93;3.72;;;11.80;99.90;;;;;;4985500;28;20438;-78
2023/03/30 02:31:15;;;;;;;8.73;4.17;;;11.80;99.90;;;;;;4990686;28;20855;-77
2023/03/30 02:34:07;;;;;;;10.32;4.20;;;11.80;99.90;;;;;;4987587;28;20430;-76
2023/03/30 02:36:44;;;;;;;8.87;3.90;;;11.90;99.90;;;;;;4989483;28;20512;-76
2023/03/30 02:39:23;;;;;;;12.38;4.07;;;11.90;99.90;;;;;;4988475;28;20446;-76
2023/03/30 02:42:27;;;;;;;9.68;3.60;;;11.90;99.90;;;;;;4988702;28;21104;-77
2023/03/30 02:45:14;;;;;;;7.93;3.60;;;11.90;99.90;;;;;;4986898;28;20445;-77
2023/03/30 02:48:16;;;;;;;8.98;3.65;;;11.90;99.90;;;;;;4978355;28;20425;-78
2023/03/30 02:51:05;;;;;;;10.18;3.65;;;12.00;99.90;;;;;;4986166;28;20426;-77
2023/03/30 02:53:31;;;;;;;6.13;3.07;;;12.10;99.90;;;;;;4987073;28;20936;-77
2023/03/30 02:56:20;;;;;;;9.70;3.60;;;12.10;99.90;;;;;;4989847;28;20512;-76
2023/03/30 02:58:58;;;;;;;7.45;3.63;;;12.10;99.90;;;;;;4970962;28;20430;-76
2023/03/30 03:01:38;;;;;;;7.10;3.40;;;12.20;99.90;;;;;;4990581;28;20434;-78
2023/03/30 03:04:06;;;;;;;8.05;2.83;;;12.20;99.90;;;;;;4966025;28;20429;-78
2023/03/30 03:06:32;;;;;;;8.98;4.60;;;12.30;99.90;;;;;;4989990;28;20470;-77
2023/03/30 03:08:58;;;;;;;7.20;3.60;;;12.10;99.90;;;;;;4990277;28;20875;-77
2023/03/30 03:11:24;;;;;;;8.00;3.40;;;12.00;99.90;;;;;;4989568;28;20797;-78
2023/03/30 03:13:51;;;;;;;9.07;3.42;;;12.00;99.90;;;;;;4989826;28;20441;-77
2023/03/30 03:16:16;;;;;;;7.78;3.15;;;12.00;99.90;;;;;;4990484;28;20497;-79
2023/03/30 03:18:43;;;;;;;8.18;3.60;;;11.90;99.90;;;;;;4988281;28;20932;-78
2023/03/30 03:21:11;;;;;;;9.32;3.85;;;11.80;99.90;;;;;;4987848;28;20808;-80
2023/03/30 03:23:37;;;;;;;8.15;3.33;;;11.90;99.90;;;;;;4976320;28;20908;-79
2023/03/30 03:26:04;;;;;;;9.33;3.00;;;11.90;99.90;;;;;;4990331;28;20956;-79
2023/03/30 03:28:30;;;;;;;10.50;3.47;;;11.90;99.90;;;;;;4986073;28;20433;-78
2023/03/30 03:30:58;;;;;;;8.98;3.40;;;11.90;99.90;;;;;;4987345;28;20777;-76
2023/03/30 03:33:25;;;;;;;11.32;4.38;;;12.00;99.90;;;;;;4990971;28;20516;-77
2023/03/30 03:35:52;;;;;;;8.68;3.20;;;12.00;99.90;;;;;;5000007;28;20510;-77
2023/03/30 03:38:20;;;;;;;8.32;3.40;;;12.10;99.90;;;;;;4984729;28;20781;-77
2023/03/30 03:40:54;;;;;;;7.47;3.15;;;12.10;99.90;;;;;;4987653;28;20435;-76
2023/03/30 03:43:20;;;;;;;7.68;3.38;;;12.00;99.90;;;;;;4986142;28;20986;-77
2023/03/30 03:45:47;;;;;;;7.30;3.05;;;12.10;99.90;;;;;;4987065;28;20449;-77
2023/03/30 03:48:14;;;;;;;9.55;3.08;;;12.00;99.90;;;;;;4987267;28;20501;-78
2023/03/30 03:50:40;;;;;;;14.67;4.60;;;12.00;99.90;;;;;;4986918;28;20538;-78
2023/03/30 03:53:06;;;;;;;15.32;4.05;;;12.00;99.90;;;;;;4985819;28;20434;-78
2023/03/30 03:55:34;;;;;;;9.32;3.17;;;12.00;99.90;;;;;;4989453;28;20453;-78
2023/03/30 03:58:01;;;;;;;8.35;3.10;;;12.00;99.90;;;;;;4986816;28;20945;-77
2023/03/30 04:00:27;;;;;;;12.85;2.88;;;12.00;99.90;;;;;;4988721;28;20426;-78
2023/03/30 04:02:52;;;;;;;12.30;3.43;;;12.00;99.90;;;;;;4986039;28;22346;-77
2023/03/30 04:05:18;;;;;;;9.27;3.13;;;11.90;99.90;;;;;;4987826;28;20964;-78
2023/03/30 04:07:45;;;;;;;9.07;2.47;;;11.90;99.90;;;;;;4986205;28;20422;-76
2023/03/30 04:10:12;;;;;;;9.48;2.80;;;12.00;99.90;;;;;;4971776;28;20434;-77
2023/03/30 04:12:38;;;;;;;8.68;2.83;;;12.00;99.90;;;;;;4986477;28;20430;-78
2023/03/30 04:15:05;;;;;;;9.90;2.60;;;12.10;99.90;;;;;;4988941;28;20936;-78
2023/03/30 04:17:35;;;;;;;8.80;2.43;;;12.00;99.90;;;;;;4992718;28;20426;-79
2023/03/30 04:20:03;;;;;;;9.23;3.30;;;12.00;99.90;;;;;;4987590;28;20445;-77
2023/03/30 04:22:32;;;;;;;10.35;2.40;;;11.90;99.90;;;;;;4984129;28;20434;-79
2023/03/30 04:24:58;;;;;;;9.88;2.92;;;11.90;99.90;;;;;;4988201;28;20839;-79
2023/03/30 04:27:27;;;;;;;8.88;2.10;;;11.90;99.90;;;;;;4988165;28;20418;-78
2023/03/30 04:29:56;;;;;;;12.20;3.25;;;12.00;99.90;;;;;;4984517;28;20437;-78
2023/03/30 04:32:23;;;;;;;10.57;3.00;;;12.00;99.90;;;;;;4986565;28;20521;-77
2023/03/30 04:34:53;;;;;;;9.02;3.00;;;12.10;99.90;;;;;;4986167;28;20437;-77
2023/03/30 04:37:28;;;;;;;8.93;2.50;;;12.10;99.90;;;;;;4981143;28;20426;-77
2023/03/30 04:39:56;;;;;;;12.27;2.90;;;12.10;99.90;;;;;;4986426;28;20434;-77
2023/03/30 04:42:29;;;;;;;10.60;2.55;;;12.10;99.90;;;;;;4991848;28;20429;-76
2023/03/30 04:44:58;;;;;;;12.15;2.72;;;12.10;99.90;;;;;;4986545;28;20434;-76
2023/03/30 04:47:26;;;;;;;11.95;2.53;;;12.10;99.90;;;;;;4988126;28;20485;-77
2023/03/30 04:49:52;;;;;;;9.25;2.78;;;12.00;99.90;;;;;;4980166;28;20455;-76
2023/03/30 04:52:19;;;;;;;10.43;2.95;;;12.10;99.90;;;;;;4980825;28;20484;-77
2023/03/30 04:54:45;;;;;;;10.63;3.85;;;12.10;99.90;;;;;;4987108;28;20434;-77
2023/03/30 04:57:12;;;;;;;8.70;2.47;;;12.10;99.90;;;;;;4987480;28;20437;-76
2023/03/30 04:59:39;;;;;;;11.15;3.00;;;12.10;99.90;;;;;;4984770;28;20430;-76
2023/03/30 05:02:05;;;;;;;11.95;3.38;;;12.20;99.90;;;;;;4986506;28;20458;-77
2023/03/30 05:04:30;;;;;;;7.32;2.75;;;12.20;99.90;;;;;;4989856;28;20460;-76
2023/03/30 05:06:56;;;;;;;10.07;3.13;;;12.30;99.90;;;;;;4983449;28;20498;-77
2023/03/30 05:09:22;;;;;;;10.90;2.88;;;12.20;99.90;;;;;;4988554;28;20434;-77
2023/03/30 05:11:48;;;;;;;13.43;3.35;;;12.30;99.90;;;;;;4985666;28;20801;-77
2023/03/30 05:14:14;;;;;;;13.23;3.40;;;12.30;99.90;;;;;;4988547;28;20439;-76
2023/03/30 05:16:41;;;;;;;10.13;4.00;;;12.30;99.90;;;;;;4986298;28;20506;-77
2023/03/30 05:19:07;;;;;;;10.88;4.55;;;12.20;99.90;;;;;;4987136;28;20448;-77
2023/03/30 05:21:32;;;;;;;15.85;6.10;;;12.30;99.90;;;;;;4985915;28;20780;-76
2023/03/30 05:23:58;;;;;;;14.43;4.13;;;12.30;99.90;;;;;;4980369;28;20440;-77
2023/03/30 05:26:25;;;;;;;10.23;4.00;;;12.20;99.90;;;;;;4986098;28;20968;-77
2023/03/30 05:28:51;;;;;;;12.82;4.65;;;12.20;99.90;;;;;;4985491;28;20466;-78
2023/03/30 05:31:17;;;;;;;13.10;3.95;;;12.30;99.90;;;;;;4986321;28;20430;-75
2023/03/30 05:33:43;;;;;;;13.40;3.57;;;12.20;99.90;;;;;;4995412;28;20475;-76
2023/03/30 05:36:09;;;;;;;11.10;4.10;;;12.20;99.90;;;;;;4993312;28;20887;-77
2023/03/30 05:38:35;;;;;;;11.70;3.15;;;12.30;99.90;;;;;;4985344;28;20430;-77
2023/03/30 05:41:03;;;;;;;12.60;3.07;;;12.20;99.90;;;;;;4988009;28;20472;-77
2023/03/30 05:43:29;;;;;;;10.40;3.35;;;12.30;99.90;;;;;;4988429;28;20481;-77
2023/03/30 05:45:55;;;;;;;11.50;3.40;;;12.30;99.90;;;;;;4988612;28;21072;-78
2023/03/30 05:48:22;;;;;;;13.70;3.65;;;12.30;99.90;;;;;;4988659;28;20462;-77
2023/03/30 05:50:47;;;;;;;12.75;4.40;;;12.20;99.90;;;;;;4987460;28;20809;-76
2023/03/30 05:53:13;;;;;;;11.07;3.83;;;12.20;99.90;;;;;;4992208;28;20418;-76
2023/03/30 05:55:41;;;;;;;9.88;3.45;;;12.30;99.90;;;;;;4992780;28;20781;-78
2023/03/30 05:58:07;;;;;;;9.70;3.17;;;12.30;99.90;;;;;;4990480;28;20805;-78
2023/03/30 06:00:35;;;;;;;10.70;3.93;;;12.30;99.90;;;;;;4988084;28;20500;-77
2023/03/30 06:03:01;;;;;;;10.53;3.00;;;12.20;99.90;;;;;;4991820;28;21001;-79
2023/03/30 06:05:27;;;;;;;9.90;3.47;;;12.30;99.90;;;;;;4989617;28;20529;-77
2023/03/30 06:07:53;;;;;;;12.67;3.80;;;12.40;99.90;;;;;;4990045;28;20426;-75
2023/03/30 06:10:18;;;;;;;8.13;2.83;;;12.30;99.90;;;;;;4987927;28;20426;-77
2023/03/30 06:12:44;;;;;;;13.05;3.03;;;12.30;99.90;;;;;;4990541;28;20496;-76
2023/03/30 06:15:10;;;;;;;9.13;2.70;;;12.40;99.90;;;;;;4990652;28;20426;-79
2023/03/30 06:17:36;;;;;;;13.75;3.22;;;12.40;99.90;;;;;;4989821;28;20469;-77
2023/03/30 06:20:10;;;;;;;10.30;3.58;;;12.30;99.90;;;;;;4984748;28;20484;-77
2023/03/30 06:22:35;;;;;;;9.27;2.90;;;12.40;99.90;;;;;;4989850;28;20426;-77
2023/03/30 06:25:01;;;;;;;9.63;3.47;;;12.40;99.90;;;;;;4990159;28;20434;-76
2023/03/30 06:27:30;;;;;;;9.10;3.77;;;12.30;99.90;;;;;;4989528;28;20430;-77
2023/03/30 06:29:56;;;;;;;10.93;3.10;;;12.30;99.90;;;;;;4986528;28;20860;-76
2023/03/30 06:32:21;;;;;;;9.37;3.70;;;12.40;99.90;;;;;;4985580;28;20454;-76
2023/03/30 06:34:47;;;;;;;13.27;3.95;;;12.40;99.90;;;;;;5001406;28;20434;-77
2023/03/30 06:37:14;;;;;;;14.05;5.38;;;12.50;99.90;;;;;;4986671;28;20473;-77
2023/03/30 06:39:40;;;;;;;14.35;4.63;;;12.40;99.90;;;;;;4989546;28;20434;-76
2023/03/30 06:42:06;;;;;;;16.20;3.45;;;12.40;99.90;;;;;;4989050;28;20484;-76
2023/03/30 06:44:33;;;;;;;15.63;4.25;;;12.40;99.90;;;;;;4971865;28;20446;-76
2023/03/30 06:46:59;;;;;;;16.15;4.25;;;12.30;99.90;;;;;;4988929;28;20481;-76
2023/03/30 06:49:25;;;;;;;14.27;3.58;;;12.30;99.90;;;;;;4988252;28;20514;-76
2023/03/30 06:51:51;;;;;;;18.52;4.03;;;12.30;99.90;;;;;;4987746;28;20505;-77
2023/03/30 06:54:19;;;;;;;14.75;3.65;;;12.30;99.90;;;;;;4990229;28;20437;-76
2023/03/30 06:56:46;;;;;;;18.95;5.22;;;12.30;99.90;;;;;;4988792;28;20433;-77
2023/03/30 06:59:12;;;;;;;14.82;3.90;;;12.30;99.90;;;;;;4988575;28;20453;-76
2023/03/30 07:01:38;;;;;;;24.33;5.18;;;12.30;99.90;;;;;;4988602;28;20473;-75
2023/03/30 07:04:04;;;;;;;19.60;3.93;;;12.40;99.90;;;;;;4989731;28;20730;-77
2023/03/30 07:06:30;;;;;;;15.13;3.88;;;12.30;99.90;;;;;;4986599;28;20430;-76
2023/03/30 07:08:56;;;;;;;20.15;5.00;;;12.30;99.90;;;;;;4989377;28;20453;-76
2023/03/30 07:11:22;;;;;;;16.47;4.20;;;12.30;99.90;;;;;;4987783;28;20905;-76
2023/03/30 07:13:48;;;;;;;19.10;4.93;;;12.20;99.90;;;;;;4990109;28;20430;-76
2023/03/30 07:16:13;;;;;;;17.20;4.73;;;12.20;99.90;;;;;;4986105;28;20433;-77
2023/03/30 07:18:39;;;;;;;18.97;4.93;;;12.20;99.90;;;;;;4989650;28;20521;-77
2023/03/30 07:21:05;;;;;;;19.10;4.70;;;12.10;99.90;;;;;;4989802;28;20441;-76
2023/03/30 07:23:31;;;;;;;18.27;4.70;;;12.10;99.90;;;;;;4972501;28;20780;-77
2023/03/30 07:25:56;;;;;;;14.73;3.77;;;12.20;99.90;;;;;;4988075;28;20525;-75
2023/03/30 07:28:23;;;;;;;15.50;4.28;;;12.00;99.90;;;;;;4990904;28;21092;-76
2023/03/30 07:30:48;;;;;;;18.17;4.35;;;12.00;99.90;;;;;;4971597;28;20523;-75
2023/03/30 07:33:14;;;;;;;20.30;4.80;;;12.00;99.90;;;;;;4988376;28;20479;-78
2023/03/30 07:35:44;;;;;;;20.48;5.20;;;11.90;99.90;;;;;;4987282;28;20438;-74
2023/03/30 07:38:11;;;;;;;16.17;4.15;;;12.00;99.90;;;;;;4985892;28;20438;-76
2023/03/30 07:40:37;;;;;;;19.25;6.90;;;12.00;99.90;;;;;;4986923;28;20434;-75
2023/03/30 07:43:03;;;;;;;15.67;4.37;;;12.00;99.90;;;;;;4989211;28;20430;-75
2023/03/30 07:45:28;;;;;;;19.43;4.53;;;11.80;99.90;;;;;;4987610;28;20521;-75
2023/03/30 07:47:54;;;;;;;26.97;6.70;;;11.80;99.90;;;;;;4987551;28;20901;-75
2023/03/30 07:50:20;;;;;;;21.85;5.40;;;11.80;99.90;;;;;;4988425;28;20455;-75
2023/03/30 07:52:46;;;;;;;25.73;5.40;;;11.80;99.90;;;;;;4987027;28;20501;-75
2023/03/30 07:55:11;;;;;;;21.30;5.53;;;11.80;99.90;;;;;;4971588;28;20486;-75
2023/03/30 07:57:37;;;;;;;26.73;5.07;;;11.70;99.90;;;;;;4988964;28;20488;-75
2023/03/30 08:00:09;;;;;;;26.55;5.57;;;11.70;99.90;;;;;;4988817;28;21182;-75
2023/03/30 08:02:35;;;;;;;28.95;6.80;;;11.80;99.90;;;;;;4988702;28;20949;-75
2023/03/30 08:05:01;;;;;;;22.55;6.28;;;11.70;99.90;;;;;;4986576;28;20758;-75
2023/03/30 08:07:27;;;;;;;22.33;4.77;;;11.70;99.90;;;;;;4985896;28;20577;-76
2023/03/30 08:09:53;;;;;;;27.40;7.00;;;11.80;99.90;;;;;;4988842;28;20426;-76
2023/03/30 08:12:19;;;;;;;25.60;6.80;;;11.80;99.90;;;;;;4985867;28;20449;-76
2023/03/30 08:14:45;;;;;;;27.00;6.57;;;11.80;99.90;;;;;;4986285;28;20442;-75
2023/03/30 08:17:11;;;;;;;28.88;7.50;;;11.70;99.90;;;;;;4988343;28;20430;-76
2023/03/30 08:19:36;;;;;;;32.90;7.75;;;11.70;99.90;;;;;;4989475;28;20461;-75
2023/03/30 08:22:02;;;;;;;24.30;5.78;;;11.50;99.90;;;;;;4987204;28;20431;-76
2023/03/30 08:24:28;;;;;;;21.70;5.65;;;11.60;99.90;;;;;;4986568;28;20430;-76
2023/03/30 08:26:53;;;;;;;29.10;7.50;;;11.70;99.90;;;;;;4987685;28;20426;-76
2023/03/30 08:29:19;;;;;;;24.47;6.07;;;11.70;99.90;;;;;;4987886;28;20446;-75
2023/03/30 08:31:45;;;;;;;31.23;6.97;;;11.70;99.90;;;;;;4985970;28;21008;-78
2023/03/30 08:34:11;;;;;;;29.05;6.30;;;11.80;99.90;;;;;;4984410;28;20453;-76
2023/03/30 08:36:37;;;;;;;29.45;6.70;;;11.80;99.90;;;;;;4981708;28;20423;-76
2023/03/30 08:39:03;;;;;;;27.10;6.82;;;11.90;99.90;;;;;;4986182;28;20434;-75
2023/03/30 08:41:30;;;;;;;29.83;7.30;;;12.00;99.90;;;;;;4989759;28;20403;-77
2023/03/30 08:44:08;;;;;;;25.85;7.03;;;12.00;99.90;;;;;;4985650;28;20449;-77
2023/03/30 08:46:34;;;;;;;29.45;8.52;;;12.00;99.90;;;;;;4988008;28;20450;-75
2023/03/30 08:49:05;;;;;;;31.10;6.95;;;12.10;99.90;;;;;;4987364;28;20430;-77
2023/03/30 08:51:32;;;;;;;30.05;7.55;;;12.30;99.90;;;;;;4987241;28;20430;-78
2023/03/30 08:54:00;;;;;;;29.43;8.37;;;12.40;99.90;;;;;;4986670;28;20518;-77
2023/03/30 08:56:39;;;;;;;27.15;6.00;;;12.30;99.90;;;;;;4983925;28;20508;-77
2023/03/30 08:59:20;;;;;;;32.00;8.48;;;12.40;99.90;;;;;;4988945;28;20900;-77
2023/03/30 09:01:56;;;;;;;29.13;6.68;;;12.60;99.90;;;;;;4984346;28;20426;-77
2023/03/30 09:04:41;;;;;;;22.75;6.03;;;12.40;99.90;;;;;;4985938;28;20430;-76
2023/03/30 09:07:17;;;;;;;26.65;7.18;;;12.40;99.90;;;;;;4982323;28;20426;-78
2023/03/30 09:09:46;;;;;;;25.02;7.30;;;12.70;99.90;;;;;;4986221;28;21006;-75
2023/03/30 09:12:19;;;;;;;23.77;5.80;;;12.80;99.90;;;;;;4989103;28;20425;-77
2023/03/30 09:14:52;;;;;;;26.67;7.17;;;12.70;99.90;;;;;;4986720;28;20434;-76
2023/03/30 09:17:31;;;;;;;30.73;7.70;;;13.10;99.90;;;;;;4984101;28;20430;-76
2023/03/30 09:20:02;;;;;;;28.65;7.20;;;13.00;99.90;;;;;;4985333;28;20581;-76
2023/03/30 09:22:37;;;;;;;21.13;4.80;;;12.80;99.90;;;;;;4983262;28;20445;-77
2023/03/30 09:25:16;;;;;;;24.63;5.47;;;12.80;99.90;;;;;;4987253;28;20461;-77
2023/03/30 09:28:02;;;;;;;22.90;5.65;;;12.70;99.90;;;;;;4985580;28;20877;-76
2023/03/30 09:30:40;;;;;;;27.65;8.35;;;12.90;99.90;;;;;;4988754;28;20544;-76
2023/03/30 09:33:40;;;;;;;20.67;5.20;;;12.90;99.90;;;;;;4990099;28;20430;-77
2023/03/30 09:36:24;;;;;;;34.05;7.68;;;12.60;99.90;;;;;;4988585;28;20957;-76
2023/03/30 09:38:51;;;;;;;23.27;5.80;;;12.60;99.90;;;;;;4985252;28;20952;-76
2023/03/30 09:41:29;;;;;;;23.45;5.85;;;12.50;99.90;;;;;;4988533;28;20431;-75
2023/03/30 09:43:57;;;;;;;25.00;6.78;;;12.50;99.90;;;;;;4987021;28;20770;-76
2023/03/30 09:46:22;;;;;;;19.73;6.03;;;12.50;99.90;;;;;;4990879;28;20531;-77
2023/03/30 09:48:49;;;;;;;22.20;5.78;;;12.40;99.90;;;;;;4987761;28;20564;-75
2023/03/30 09:51:24;;;;;;;22.43;5.63;;;12.50;99.90;;;;;;4991381;28;20425;-76
2023/03/30 09:53:59;;;;;;;22.23;5.32;;;12.50;99.90;;;;;;4988476;28;20908;-75
2023/03/30 09:56:45;;;;;;;23.25;6.82;;;12.60;99.90;;;;;;4982186;28;20514;-76
2023/03/30 09:59:21;;;;;;;23.77;5.53;;;12.60;99.90;;;;;;4989229;28;20757;-76
2023/03/30 10:01:47;;;;;;;23.20;5.32;;;12.60;99.90;;;;;;4990591;28;20794;-75
2023/03/30 10:04:15;;;;;;;23.40;5.57;;;12.50;99.90;;;;;;4990499;28;20485;-76
2023/03/30 10:06:48;;;;;;;20.67;5.30;;;12.50;99.90;;;;;;4981715;28;20592;-76
2023/03/30 10:09:18;;;;;;;21.38;4.18;;;12.50;99.90;;;;;;4989719;28;20434;-77
2023/03/30 10:11:48;;;;;;;19.50;4.22;;;12.50;99.90;;;;;;4989871;28;20442;-77
2023/03/30 10:14:34;;;;;;;21.00;5.50;;;12.50;99.90;;;;;;4989533;28;20844;-76
2023/03/30 10:17:02;;;;;;;22.63;4.15;;;12.40;99.90;;;;;;4989011;28;20445;-77
2023/03/30 10:19:28;;;;;;;25.23;6.43;;;12.40;99.90;;;;;;4988475;28;20469;-78
2023/03/30 10:21:57;;;;;;;25.23;7.00;;;12.40;99.90;;;;;;4982630;28;20821;-76
2023/03/30 10:24:26;;;;;;;24.20;7.05;;;12.60;99.90;;;;;;4983217;28;20440;-77
2023/03/30 10:26:58;;;;;;;22.70;5.37;;;12.40;99.90;;;;;;4986945;28;20422;-77
2023/03/30 10:29:27;;;;;;;20.83;4.75;;;12.60;99.90;;;;;;4991104;28;20434;-76
2023/03/30 10:32:21;;;;;;;24.70;5.50;;;12.50;99.90;;;;;;4985794;28;20430;-77
2023/03/30 10:34:51;;;;;;;25.80;5.82;;;12.60;99.90;;;;;;4988425;28;20442;-76
2023/03/30 10:37:41;;;;;;;30.88;6.35;;;12.60;99.90;;;;;;4988595;28;20425;-76
2023/03/30 10:40:20;;;;;;;28.23;6.35;;;12.70;99.90;;;;;;4985938;28;20442;-76
2023/03/30 10:42:51;;;;;;;26.92;6.63;;;12.80;99.90;;;;;;4987706;28;20438;-77
2023/03/30 10:45:43;;;;;;;29.35;7.45;;;12.90;99.90;;;;;;4973634;28;20439;-77
2023/03/30 10:48:39;;;;;;;25.88;6.28;;;12.90;99.90;;;;;;4988845;28;20422;-77
2023/03/30 10:51:23;;;;;;;24.20;7.30;;;13.10;99.90;;;;;;4972148;28;20508;-77
2023/03/30 10:54:05;;;;;;;28.77;8.18;;;13.00;99.90;;;;;;4982135;28;20894;-77
2023/03/30 10:56:47;;;;;;;27.33;7.22;;;13.30;99.90;;;;;;4973712;28;20423;-76
2023/03/30 10:59:25;;;;;;;24.23;6.50;;;13.40;99.90;;;;;;4981950;28;20448;-75
2023/03/30 11:02:20;;;;;;;28.35;6.90;;;13.40;99.90;;;;;;4991695;28;20939;-77
2023/03/30 11:05:02;;;;;;;22.77;6.63;;;13.50;99.90;;;;;;4990088;28;20469;-74
2023/03/30 11:07:34;;;;;;;26.33;7.07;;;13.60;99.90;;;;;;4991326;28;20520;-76
2023/03/30 11:10:28;;;;;;;25.00;6.97;;;13.80;99.90;;;;;;4991325;28;20734;-76
2023/03/30 11:13:02;;;;;;;28.20;7.27;;;13.60;99.90;;;;;;4984487;28;20419;-77
2023/03/30 11:15:46;;;;;;;22.77;5.57;;;13.60;99.90;;;;;;4989742;28;20579;-76
2023/03/30 11:18:30;;;;;;;27.38;6.25;;;13.70;99.90;;;;;;4990421;28;20422;-78
2023/03/30 11:21:20;;;;;;;24.30;5.57;;;13.80;99.90;;;;;;4988792;28;20502;-76
2023/03/30 11:23:54;;;;;;;26.70;7.30;;;13.90;99.90;;;;;;4989430;28;20423;-77
2023/03/30 11:26:33;;;;;;;27.25;6.70;;;14.30;99.90;;;;;;4988589;28;20487;-76
2023/03/30 11:29:16;;;;;;;29.65;6.63;;;14.30;99.90;;;;;;4989837;28;20765;-76
2023/03/30 11:32:20;;;;;;;31.38;8.07;;;14.30;99.90;;;;;;4989059;28;20454;-76
2023/03/30 11:35:20;;;;;;;26.38;7.22;;;14.70;99.90;;;;;;4958595;28;20435;-76
2023/03/30 11:37:56;;;;;;;26.23;7.13;;;14.30;99.90;;;;;;4969310;28;20412;-77
2023/03/30 11:40:27;;;;;;;26.15;7.07;;;14.50;99.90;;;;;;4970065;28;20432;-76
2023/03/30 11:42:54;;;;;;;27.45;6.88;;;14.20;99.90;;;;;;4969804;28;20448;-76
2023/03/30 11:45:42;;;;;;;26.75;7.32;;;14.20;99.90;;;;;;4987463;28;20422;-76
2023/03/30 11:48:10;;;;;;;24.70;6.20;;;14.10;99.90;;;;;;4970059;28;20431;-77
2023/03/30 11:51:00;;;;;;;28.10;8.80;;;14.00;99.90;;;;;;4967844;28;20423;-78
2023/03/30 11:53:26;;;;;;;24.85;6.70;;;14.20;99.90;;;;;;4987359;28;20430;-77
2023/03/30 11:55:59;;;;;;;28.00;6.57;;;14.20;99.90;;;;;;4969241;28;20407;-76
2023/03/30 11:58:38;;;;;;;23.20;6.32;;;14.20;99.90;;;;;;4968454;28;20455;-77
2023/03/30 12:01:23;;;;;;;27.13;6.53;;;14.30;99.90;;;;;;4970040;28;20558;-77
2023/03/30 12:04:15;;;;;;;24.92;7.35;;;14.30;99.90;;;;;;4970750;28;20438;-76
2023/03/30 12:06:54;;;;;;;25.05;7.40;;;14.30;99.90;;;;;;4978211;28;20489;-77
2023/03/30 12:09:24;;;;;;;23.10;6.55;;;14.30;99.90;;;;;;4988528;28;20457;-77
2023/03/30 12:12:00;;;;;;;22.17;6.13;;;14.40;99.90;;;;;;4989010;28;20484;-77
2023/03/30 12:14:46;;;;;;;25.13;6.30;;;14.40;99.90;;;;;;4970430;28;20438;-77
2023/03/30 12:17:17;;;;;;;24.17;6.28;;;14.50;99.90;;;;;;4988458;28;20473;-78
2023/03/30 12:19:53;;;;;;;25.38;6.50;;;14.60;99.90;;;;;;4984902;28;20477;-76
2023/03/30 12:22:33;;;;;;;27.52;6.40;;;14.50;99.90;;;;;;4987589;28;20457;-77
2023/03/30 12:25:29;;;;;;;24.13;6.40;;;14.50;99.90;;;;;;4988732;28;20425;-77
2023/03/30 12:27:58;;;;;;;27.50;6.43;;;14.80;99.90;;;;;;4971015;28;20418;-76
2023/03/30 12:30:29;;;;;;;25.65;6.35;;;14.40;99.90;;;;;;4988241;28;20430;-76
2023/03/30 12:33:11;;;;;;;20.40;6.80;;;14.60;99.90;;;;;;4988281;28;20489;-76
2023/03/30 12:35:51;;;;;;;23.23;6.07;;;14.80;99.90;;;;;;4987561;28;20782;-76
2023/03/30 12:38:22;;;;;;;22.40;6.43;;;15.00;99.90;;;;;;4987952;28;20860;-77
2023/03/30 12:41:13;;;;;;;22.98;6.82;;;14.80;99.90;;;;;;4988369;28;20433;-76
2023/03/30 12:43:51;;;;;;;30.23;8.27;;;14.50;99.90;;;;;;4985689;28;20520;-76
2023/03/30 12:46:34;;;;;;;32.93;8.93;;;14.20;99.90;;;;;;4975361;28;20467;-77
2023/03/30 12:49:18;;;;;;;24.90;6.43;;;14.10;99.90;;;;;;4986583;28;20426;-78
2023/03/30 12:52:13;;;;;;;31.80;8.37;;;14.30;99.90;;;;;;4987689;28;20458;-78
2023/03/30 12:54:54;;;;;;;31.13;7.27;;;14.10;99.90;;;;;;4986745;28;20426;-77
2023/03/30 12:57:30;;;;;;;34.33;8.18;;;14.30;99.90;;;;;;4987325;28;20434;-77
2023/03/30 13:00:15;;;;;;;29.73;8.70;;;14.50;99.90;;;;;;4985797;28;20979;-77
2023/03/30 13:02:59;;;;;;;40.17;9.18;;;14.90;99.90;;;;;;4986234;28;20913;-76